createdAt,value
2022-11-29T00:04:46.158Z,-2.90
2022-11-29T00:09:48.041Z,-3.00
2022-11-29T00:14:49.867Z,-2.90
2022-11-29T00:19:51.682Z,-2.90
2022-11-29T00:24:53.462Z,-3.00
2022-11-29T00:29:55.265Z,-2.90
2022-11-29T00:34:59.455Z,-2.80
2022-11-29T00:40:01.766Z,-2.80
2022-11-29T00:45:04.034Z,-2.80
2022-11-29T00:50:07.312Z,-2.80
2022-11-29T00:55:09.483Z,-2.50
2022-11-29T01:00:11.882Z,-2.40
2022-11-29T01:05:13.717Z,-2.30
2022-11-29T01:10:15.522Z,-2.30
2022-11-29T01:15:17.426Z,-2.30
2022-11-29T01:20:19.396Z,-2.20
2022-11-29T01:25:21.242Z,-2.50
2022-11-29T01:30:23.066Z,-2.70
2022-11-29T01:35:24.864Z,-2.70
2022-11-29T01:40:26.707Z,-2.60
2022-11-29T01:45:28.498Z,-2.60
2022-11-29T01:50:30.323Z,-2.60
2022-11-29T01:55:36.142Z,-2.60
2022-11-29T02:00:38.081Z,-2.70
2022-11-29T02:05:43.074Z,-2.80
2022-11-29T02:10:51.121Z,-3.00
2022-11-29T02:16:16.310Z,-3.00
2022-11-29T02:21:22.277Z,-3.00
2022-11-29T02:26:42.101Z,-3.00
2022-11-29T02:32:22.194Z,-2.90
2022-11-29T02:37:42.958Z,-3.10
2022-11-29T02:43:06.184Z,-3.10
2022-11-29T02:48:17.252Z,-3.30
2022-11-29T02:53:30.282Z,-3.40
2022-11-29T02:58:45.193Z,-3.20
2022-11-29T03:04:00.011Z,-3.10
2022-11-29T03:09:21.894Z,-3.30
2022-11-29T03:14:42.667Z,-3.40
2022-11-29T03:20:06.034Z,-3.30
2022-11-29T03:25:31.844Z,-3.30
2022-11-29T03:30:40.008Z,-3.20
2022-11-29T03:35:51.440Z,-3.50
2022-11-29T03:41:19.029Z,-3.40
2022-11-29T03:46:48.605Z,-3.40
2022-11-29T03:52:12.074Z,-3.20
2022-11-29T03:57:19.879Z,-3.60
2022-11-29T04:02:39.685Z,-3.40
2022-11-29T04:08:18.861Z,-3.00
2022-11-29T04:13:55.444Z,-2.80
2022-11-29T04:19:34.178Z,-2.60
2022-11-29T04:25:13.678Z,-2.80
2022-11-29T04:30:20.488Z,-2.60
2022-11-29T04:35:43.177Z,-2.50
2022-11-29T04:41:10.180Z,-2.40
2022-11-29T04:46:23.893Z,-2.50
2022-11-29T04:51:46.941Z,-2.60
2022-11-29T04:56:58.211Z,-2.50
2022-11-29T05:02:37.511Z,-2.50
2022-11-29T05:07:48.438Z,-2.40
2022-11-29T05:13:18.031Z,-2.10
2022-11-29T05:18:27.661Z,-2.30
2022-11-29T05:24:11.822Z,-2.50
2022-11-29T05:29:27.670Z,-2.70
2022-11-29T05:35:07.978Z,-2.60
2022-11-29T05:40:22.166Z,-2.70
2022-11-29T05:45:30.630Z,-2.60
2022-11-29T05:50:38.248Z,-2.70
2022-11-29T05:55:57.275Z,-2.70
2022-11-29T06:01:14.241Z,-2.90
2022-11-29T06:06:26.014Z,-2.70
2022-11-29T06:11:33.777Z,-2.80
2022-11-29T06:16:59.686Z,-2.70
2022-11-29T06:22:39.257Z,-2.70
2022-11-29T06:27:53.104Z,-2.70
2022-11-29T06:33:02.388Z,-2.60
2022-11-29T06:38:19.470Z,-2.50
2022-11-29T06:43:21.839Z,-2.50
2022-11-29T06:48:27.105Z,-2.40
2022-11-29T06:54:08.952Z,-2.40
2022-11-29T06:59:49.619Z,-2.40
2022-11-29T07:05:05.079Z,-2.40
2022-11-29T07:10:14.976Z,-2.40
2022-11-29T07:15:19.879Z,-2.40
2022-11-29T07:21:18.928Z,-2.40
2022-11-29T07:26:34.562Z,-2.30
2022-11-29T07:32:24.057Z,-2.20
2022-11-29T07:38:17.078Z,-2.40
2022-11-29T07:43:49.201Z,-2.30
2022-11-29T07:48:51.501Z,-2.20
2022-11-29T07:53:53.914Z,-2.20
2022-11-29T07:58:55.758Z,-2.20
2022-11-29T08:03:57.586Z,-2.10
2022-11-29T08:09:00.245Z,-2.00
2022-11-29T08:14:03.554Z,-1.70
2022-11-29T08:19:05.510Z,-1.90
2022-11-29T08:24:07.421Z,-1.70
2022-11-29T08:29:09.282Z,-1.70
2022-11-29T08:34:11.378Z,-1.90
2022-11-29T08:39:13.186Z,-1.70
2022-11-29T08:44:14.997Z,-1.60
2022-11-29T08:49:17.062Z,-1.80
2022-11-29T08:54:18.910Z,-1.90
2022-11-29T08:59:20.706Z,-1.90
2022-11-29T09:04:22.552Z,-1.80
2022-11-29T09:09:24.361Z,-1.70
2022-11-29T09:14:26.172Z,-1.70
2022-11-29T09:19:28.436Z,-1.60
2022-11-29T09:24:30.265Z,-1.70
2022-11-29T09:29:32.136Z,-1.60
2022-11-29T09:34:34.091Z,-1.50
2022-11-29T09:39:35.998Z,-1.70
2022-11-29T09:44:56.330Z,-1.50
2022-11-29T09:50:21.991Z,-1.40
2022-11-29T09:55:43.046Z,-1.40
2022-11-29T10:00:54.030Z,-1.20
2022-11-29T10:06:02.035Z,-1.30
2022-11-29T10:11:28.289Z,-1.20
2022-11-29T10:16:52.356Z,-1.30
2022-11-29T10:22:07.315Z,-1.30
2022-11-29T10:27:20.793Z,-1.50
2022-11-29T10:32:25.429Z,-1.10
2022-11-29T10:37:32.586Z,-1.40
2022-11-29T10:42:49.351Z,-1.30
2022-11-29T10:47:54.265Z,-1.20
2022-11-29T10:53:06.642Z,-1.20
2022-11-29T10:58:16.236Z,-1.10
2022-11-29T11:03:35.230Z,-1.00
2022-11-29T11:08:39.112Z,-0.90
2022-11-29T11:13:41.721Z,-1.10
2022-11-29T11:18:45.055Z,-1.00
2022-11-29T11:24:01.857Z,-1.00
2022-11-29T11:29:03.996Z,-0.90
2022-11-29T11:34:34.181Z,-0.80
2022-11-29T11:39:36.205Z,-0.80
2022-11-29T11:44:49.392Z,-0.80
2022-11-29T11:49:55.909Z,-0.70
2022-11-29T11:55:04.386Z,-0.70
2022-11-29T12:00:07.439Z,-0.60
2022-11-29T12:05:18.448Z,-0.60
2022-11-29T12:10:24.394Z,-0.90
2022-11-29T12:15:32.634Z,-0.70
2022-11-29T12:20:50.124Z,-0.50
2022-11-29T12:26:55.801Z,-0.80
2022-11-29T12:31:50.731Z,-0.90
2022-11-29T12:37:02.516Z,-0.80
2022-11-29T12:42:48.827Z,-0.90
2022-11-29T12:47:59.280Z,-1.10
2022-11-29T12:53:14.884Z,-0.90
2022-11-29T12:58:45.654Z,-1.00
2022-11-29T13:04:00.165Z,-0.90
2022-11-29T13:09:14.012Z,-1.20
2022-11-29T13:14:42.083Z,-1.20
2022-11-29T13:19:59.522Z,-1.40
2022-11-29T13:25:33.785Z,-1.20
2022-11-29T13:30:35.913Z,-1.10
2022-11-29T13:36:05.849Z,-1.10
2022-11-29T13:41:22.672Z,-1.00
2022-11-29T13:46:39.001Z,-1.30
2022-11-29T13:51:41.430Z,-1.40
2022-11-29T13:56:46.845Z,-1.40
2022-11-29T14:01:54.031Z,-1.40
2022-11-29T14:07:09.022Z,-1.60
2022-11-29T14:12:48.063Z,-1.40
2022-11-29T14:17:55.057Z,-1.40
2022-11-29T14:23:06.770Z,-1.40
2022-11-29T14:28:15.092Z,-1.60
2022-11-29T14:33:46.063Z,-1.50
2022-11-29T14:38:51.511Z,-1.50
2022-11-29T14:44:06.492Z,-1.50
2022-11-29T14:49:27.213Z,-1.60
2022-11-29T14:54:29.828Z,-1.50
2022-11-29T14:59:52.980Z,-1.60
2022-11-29T15:04:57.823Z,-1.60
2022-11-29T15:10:04.410Z,-1.60
2022-11-29T15:15:31.989Z,-1.70
2022-11-29T15:20:58.961Z,-1.70
2022-11-29T15:26:01.645Z,-1.70
2022-11-29T15:31:16.970Z,-1.70
2022-11-29T15:36:21.901Z,-1.60
2022-11-29T15:41:29.963Z,-1.60
2022-11-29T15:46:35.157Z,-1.60
2022-11-29T15:51:39.389Z,-1.50
2022-11-29T15:56:53.458Z,-1.50
2022-11-29T16:01:59.360Z,-1.50
2022-11-29T16:07:04.892Z,-1.50
2022-11-29T16:12:13.417Z,-1.50
2022-11-29T16:17:15.613Z,-1.60
2022-11-29T16:22:27.334Z,-1.50
2022-11-29T16:27:35.934Z,-1.50
2022-11-29T16:32:43.140Z,-1.50
2022-11-29T16:37:47.272Z,-1.40
2022-11-29T16:43:07.196Z,-1.40
2022-11-29T16:48:28.322Z,-1.40
2022-11-29T16:53:47.946Z,-1.40
2022-11-29T16:59:16.928Z,-1.40
2022-11-29T17:04:25.215Z,-1.30
2022-11-29T17:09:31.399Z,-1.20
2022-11-29T17:14:33.711Z,-1.20
2022-11-29T17:19:36.070Z,-1.20
2022-11-29T17:24:43.396Z,-1.20
2022-11-29T17:29:49.146Z,-1.20
2022-11-29T17:34:52.044Z,-1.20
2022-11-29T17:39:54.630Z,-1.10
2022-11-29T17:44:57.359Z,-1.10
2022-11-29T17:50:00.021Z,-1.10
2022-11-29T17:55:02.516Z,-1.10
2022-11-29T18:00:06.949Z,-1.10
2022-11-29T18:05:09.843Z,-1.10
2022-11-29T18:10:12.335Z,-1.10
2022-11-29T18:15:14.963Z,-1.10
2022-11-29T18:20:26.354Z,-1.10
2022-11-29T18:25:38.615Z,-1.10
2022-11-29T18:30:41.637Z,-1.00
2022-11-29T18:35:44.046Z,-1.10
2022-11-29T18:40:46.538Z,-1.10
2022-11-29T18:45:49.043Z,-1.10
2022-11-29T18:50:51.309Z,-1.10
2022-11-29T18:56:05.469Z,-1.10
2022-11-29T19:01:12.951Z,-1.10
2022-11-29T19:06:18.933Z,-1.10
2022-11-29T19:11:24.106Z,-1.00
2022-11-29T19:16:31.014Z,-1.10
2022-11-29T19:21:34.817Z,-1.10
2022-11-29T19:26:37.301Z,-1.10
2022-11-29T19:31:42.617Z,-1.10
2022-11-29T19:36:48.025Z,-1.10
2022-11-29T19:41:50.918Z,-1.00
2022-11-29T19:46:53.824Z,-1.00
2022-11-29T19:51:57.373Z,-1.00
2022-11-29T19:56:59.729Z,-1.10
2022-11-29T20:02:02.120Z,-1.10
2022-11-29T20:07:06.041Z,-1.10
2022-11-29T20:12:11.519Z,-1.10
2022-11-29T20:17:14.195Z,-1.10
2022-11-29T20:22:17.893Z,-1.20
2022-11-29T20:27:20.806Z,-1.10
2022-11-29T20:32:23.663Z,-1.10
2022-11-29T20:38:14.645Z,-1.10
2022-11-29T20:43:22.929Z,-1.10
2022-11-29T20:48:26.607Z,-1.10
2022-11-29T20:53:40.953Z,-1.20
2022-11-29T20:58:43.853Z,-1.20
2022-11-29T21:03:47.000Z,-1.20
2022-11-29T21:08:51.390Z,-1.20
2022-11-29T21:13:54.396Z,-1.20
2022-11-29T21:19:02.821Z,-1.20
2022-11-29T21:24:12.275Z,-1.20
2022-11-29T21:29:18.880Z,-1.30
2022-11-29T21:34:22.073Z,-1.30
2022-11-29T21:39:32.340Z,-1.30
2022-11-29T21:44:35.238Z,-1.30
2022-11-29T21:49:37.829Z,-1.30
2022-11-29T21:54:40.626Z,-1.20
2022-11-29T21:59:43.337Z,-1.30
2022-11-29T22:04:45.941Z,-1.30
2022-11-29T22:09:53.015Z,-1.30
2022-11-29T22:14:55.925Z,-1.20
2022-11-29T22:19:58.698Z,-1.30
2022-11-29T22:25:01.807Z,-1.20
2022-11-29T22:30:04.552Z,-1.30
2022-11-29T22:35:07.209Z,-1.40
2022-11-29T22:40:10.360Z,-1.40
2022-11-29T22:45:13.924Z,-1.40
2022-11-29T22:50:16.093Z,-1.30
2022-11-29T22:55:17.885Z,-1.30
2022-11-29T23:00:19.811Z,-1.30
2022-11-29T23:05:21.621Z,-1.30
2022-11-29T23:10:23.654Z,-1.40
2022-11-29T23:15:25.486Z,-1.50
2022-11-29T23:20:27.433Z,-1.50
2022-11-29T23:25:29.229Z,-1.50
2022-11-29T23:30:31.010Z,-1.50
2022-11-29T23:35:32.910Z,-1.50
2022-11-29T23:40:34.906Z,-1.60
2022-11-29T23:45:39.119Z,-1.60
2022-11-29T23:50:44.379Z,-1.50
2022-11-29T23:55:54.879Z,-1.50
